My Meet Scores
Julia Ryan, Gym Kinetics Gymnastics - MyMeetScores.com
Top100 | Top Teams | Upcoming Meets | Completed Meets | Latest | Add Scores | Help| Support | Bookmark and Share

Julia Ryan, Gym Kinetics Gymnastics
Personal Bests
LevelVault BarsBeamFloorAA
39.5259.350 9.5509.32537.750
49.4259.325 9.6759.45037.600
59.3759.225 9.4009.27536.475
Meet Scores
Date Meet Team Session Level Division Vault Bars Beam Floor AA
2019-03-01 NGCD Academy's 2019 Flip'r Invitational Gym Kinetics Gymnastics 11 5 Jr B 9.375 5 9.225 5T 8.700 11 9.025 9T 36.325 7
2019-02-23 Kinetic Classic 2019 Gym Kinetics Gymnastics 1 5 Older 9.350 1 8.875 8 9.150 4 8.950 6 36.325 2T
2019-02-08 Midwest Twisters Harley Meet Womens Gym Kinetics Gymnastics O11 5 12 yrs. 9.125 2 8.750 4 9.325 1 9.275 2 36.475 1
2019-01-18 2019 Bravo Classic Gym Kinetics Gymnastics 2A 5 Sr 9.000 10T 8.800 14 9.400 2 8.700 21 35.900 11
2018-03-08 Level 4 & 5 State Gym Kinetics Gymnastics All 4 Sr B 9.425 2 9.200 7T 9.675 2 9.300 5 37.600 2
2018-02-23 Kinetic Classic Gym Kinetics Gymnastics 7 4 Older 8.650 21T 9.250 11T 9.150 38T 9.225 29T 36.275 16T
2018-02-09 Arizona Sunrays Classic Rock Invitational Gym Kinetics Gymnastics W11 4 SrB 9.150 1 9.150 1 8.725 7 9.300 1 36.325 1
2018-02-03 Midwest Games Gym Kinetics Gymnastics 6 4 Sr B 9.325 1 9.100 5 9.425 4 9.300 2 37.150 1
2018-01-19 2018 Bravo Classic Gym Kinetics Gymnastics 10B 4 Jr 9.350 1 9.325 4 9.100 12T 9.375 5T 37.150 3
2017-12-15 2017 Aspire Classic Gym Kinetics Gymnastics 7A 4 Older 9.350 1 9.000 8 9.450 3 9.450 2T 37.250 2
2017-03-10 2017 Illinois Level 4 State Championships Gym Kinetics Gymnastics 4 4 Youth E 9.200 4T 9.000 13T 9.325 7 9.000 11T 36.525 6
2017-02-24 Kinetic Classic Gym Kinetics Gymnastics 5,6 4 All Ages 8.950 43T 8.775 71T 9.500 6T 9.025 58T 36.250 42T
2017-02-09 Hal's Harley-Davidson Invite Gym Kinetics Gymnastics O10 4 10 yrs. 8.725 2T 8.125 13T 9.600 1 8.600 11T 35.050 7
2017-01-13 St Jude Benefit Meet Gym Kinetics Gymnastics 4A 4 Jr B 8.575 7 8.600 13T 9.000 10T 8.675 11 34.850 12
2016-03-04 2016 Illinois Level 3 State Championships Gym Kinetics Gymnastics 3 Junior-C 9.200 21 8.800 15 8.650 10 9.000 14 35.650 14
2016-02-20 Big Classic Gym Kinetics Gymnastics 8B 3 Child B 9.475 2T 9.250 10 9.175 3 9.075 8 36.975 5
2016-01-15 2016 Bravo Classic Gym Kinetics Gymnastics 3A 3 9+yrs 9.125 10 8.800 17T 9.300 7T 9.000 11T 36.225 10
2015-12-18 2015 Aspire Classic Gym Kinetics Gymnastics 10 3 Middle 9.525 2 9.350 11T 9.550 7 9.325 10 37.750 6
2015-03-12 2015 Illinois Level 3 State Championship Gym Kinetics Gymnastics All 3 Youth-B 9.500 2 8.925 15 9.250 7 8.550 27 36.225 13
2015-02-21 BIG Classic Gym Kinetics Gymnastics 3A 3 Child B 9.400 2 8.700 11 9.000 9T 9.225 10T 36.325 8
2015-01-23 King Arthur Invitational Gym Kinetics Gymnastics 11A 3 JrB 9.325 2 8.600 16 8.250 16 8.875 14 35.050 15
2015-01-09 Legacy Elite Winter Classic 2015 Flipstar Gymnastics Academy 5B 3 Ch C 9.025 10 8.750 7T 8.250 10 8.625 10 34.650 10
Get your scores on
a t-shirt, pin, or hoodie

www.lazysuits.com